createdAt,value
2022-11-02T00:01:29.270Z,97679.00
2022-11-02T00:03:58.782Z,97678.00
2022-11-02T00:06:26.832Z,97687.00
2022-11-02T00:08:54.861Z,97681.00
2022-11-02T00:11:23.015Z,97678.00
2022-11-02T00:13:51.053Z,97682.00
2022-11-02T00:16:23.818Z,97437.00
2022-11-02T00:18:56.049Z,97678.00
2022-11-02T00:21:28.448Z,97674.00
2022-11-02T00:23:59.630Z,97648.00
2022-11-02T00:26:29.950Z,97678.00
2022-11-02T00:28:59.283Z,97680.00
2022-11-02T00:31:27.390Z,97673.00
2022-11-02T00:33:55.480Z,97677.00
2022-11-02T00:36:25.818Z,97679.00
2022-11-02T00:38:53.983Z,97682.00
2022-11-02T00:41:23.170Z,97679.00
2022-11-02T00:43:51.198Z,97688.00
2022-11-02T00:46:20.165Z,97686.00
2022-11-02T00:48:48.286Z,97702.00
2022-11-02T00:51:16.818Z,97692.00
2022-11-02T00:53:46.287Z,97685.00
2022-11-02T00:56:14.423Z,97695.00
2022-11-02T00:58:42.461Z,97680.00
2022-11-02T01:01:12.816Z,97677.00
2022-11-02T01:03:41.719Z,97685.00
2022-11-02T01:06:13.262Z,97691.00
2022-11-02T01:08:42.295Z,97705.00
2022-11-02T01:11:15.101Z,97705.00
2022-11-02T01:13:44.217Z,97686.00
2022-11-02T01:16:14.526Z,97684.00
2022-11-02T01:18:44.479Z,97697.00
2022-11-02T01:21:14.550Z,97687.00
2022-11-02T01:23:42.746Z,97687.00
2022-11-02T01:26:14.192Z,97693.00
2022-11-02T01:28:42.938Z,97694.00
2022-11-02T01:31:13.169Z,97701.00
2022-11-02T01:33:46.069Z,97683.00
2022-11-02T01:36:16.544Z,97680.00
2022-11-02T01:38:44.774Z,97682.00
2022-11-02T01:41:14.606Z,97676.00
2022-11-02T01:43:44.980Z,97658.00
2022-11-02T01:46:20.491Z,97682.00
2022-11-02T01:48:54.389Z,97674.00
2022-11-02T01:51:28.039Z,97683.00
2022-11-02T01:54:06.026Z,97673.00
2022-11-02T01:56:39.143Z,97682.00
2022-11-02T01:59:13.827Z,97674.00
2022-11-02T02:01:42.074Z,97674.00
2022-11-02T02:04:13.159Z,97651.00
2022-11-02T02:06:43.187Z,97675.00
2022-11-02T02:09:11.702Z,97677.00
2022-11-02T02:11:41.976Z,97675.00
2022-11-02T02:14:14.545Z,97677.00
2022-11-02T02:17:08.420Z,97679.00
2022-11-02T02:19:50.126Z,97672.00
2022-11-02T02:23:12.714Z,97657.00
2022-11-02T02:26:09.444Z,97667.00
2022-11-02T02:28:48.305Z,97654.00
2022-11-02T02:31:23.646Z,97637.00
2022-11-02T02:34:00.724Z,97659.00
2022-11-02T02:36:36.839Z,97665.00
2022-11-02T02:39:13.545Z,97664.00
2022-11-02T02:41:49.712Z,97663.00
2022-11-02T02:44:24.678Z,97659.00
2022-11-02T02:47:00.034Z,97661.00
2022-11-02T02:49:37.663Z,97661.00
2022-11-02T02:52:08.345Z,97656.00
2022-11-02T02:54:41.722Z,97660.00
2022-11-02T02:57:14.759Z,97653.00
2022-11-02T02:59:46.427Z,97659.00
2022-11-02T03:02:22.245Z,97644.00
2022-11-02T03:04:50.501Z,97643.00
2022-11-02T03:07:29.583Z,97658.00
2022-11-02T03:10:17.558Z,97640.00
2022-11-02T03:12:54.727Z,97652.00
2022-11-02T03:15:34.719Z,97649.00
2022-11-02T03:18:12.566Z,97649.00
2022-11-02T03:21:00.495Z,97645.00
2022-11-02T03:23:36.320Z,97642.00
2022-11-02T03:26:12.103Z,97640.00
2022-11-02T03:29:03.302Z,97640.00
2022-11-02T03:31:41.404Z,97652.00
2022-11-02T03:34:24.346Z,97642.00
2022-11-02T03:37:04.599Z,97649.00
2022-11-02T03:39:39.139Z,97647.00
2022-11-02T03:42:12.394Z,97640.00
2022-11-02T03:44:42.658Z,97636.00
2022-11-02T03:47:18.859Z,97637.00
2022-11-02T03:49:50.179Z,97632.00
2022-11-02T03:52:26.703Z,97584.00
2022-11-02T03:55:05.782Z,97641.00
2022-11-02T03:57:44.154Z,97647.00
2022-11-02T04:00:17.239Z,97649.00
2022-11-02T04:02:59.665Z,97641.00
2022-11-02T04:05:32.600Z,97645.00
2022-11-02T04:08:24.247Z,97653.00
2022-11-02T04:11:13.764Z,97653.00
2022-11-02T04:14:02.238Z,97655.00
2022-11-02T04:16:35.245Z,97654.00
2022-11-02T04:19:27.483Z,97621.00
2022-11-02T04:22:16.298Z,97660.00
2022-11-02T04:25:05.262Z,97656.00
2022-11-02T04:27:34.719Z,97664.00
2022-11-02T04:30:03.090Z,97671.00
2022-11-02T04:32:56.456Z,97674.00
2022-11-02T04:35:29.323Z,97663.00
2022-11-02T04:38:15.936Z,97670.00
2022-11-02T04:40:44.451Z,97676.00
2022-11-02T04:43:12.613Z,97668.00
2022-11-02T04:45:40.810Z,97660.00
2022-11-02T04:48:10.726Z,97650.00
2022-11-02T04:50:41.206Z,97661.00
2022-11-02T04:53:10.796Z,97656.00
2022-11-02T04:55:40.607Z,97655.00
2022-11-02T04:58:08.874Z,97653.00
2022-11-02T05:00:37.012Z,97671.00
2022-11-02T05:03:09.731Z,97640.00
2022-11-02T05:05:42.638Z,97649.00
2022-11-02T05:08:11.526Z,97659.00
2022-11-02T05:10:39.769Z,97657.00
2022-11-02T05:13:08.014Z,97664.00
2022-11-02T05:15:40.282Z,97665.00
2022-11-02T05:18:09.769Z,97665.00
2022-11-02T05:20:39.913Z,97661.00
2022-11-02T05:23:09.545Z,97659.00
2022-11-02T05:25:37.801Z,97652.00
2022-11-02T05:28:06.220Z,97655.00
2022-11-02T05:30:37.609Z,97663.00
2022-11-02T05:33:06.054Z,97661.00
2022-11-02T05:35:34.523Z,97671.00
2022-11-02T05:38:03.267Z,97666.00
2022-11-02T05:40:33.725Z,97666.00
2022-11-02T05:43:02.742Z,97665.00
2022-11-02T05:45:31.567Z,97674.00
2022-11-02T05:48:01.981Z,97662.00
2022-11-02T05:50:30.764Z,97662.00
2022-11-02T05:53:01.198Z,97675.00
2022-11-02T05:55:29.525Z,97661.00
2022-11-02T05:57:58.920Z,97680.00
2022-11-02T06:00:27.082Z,97671.00
2022-11-02T06:02:59.890Z,97662.00
2022-11-02T06:05:28.083Z,97674.00
2022-11-02T06:08:00.279Z,97675.00
2022-11-02T06:10:29.306Z,97645.00
2022-11-02T06:13:00.417Z,97684.00
2022-11-02T06:15:29.619Z,97692.00
2022-11-02T06:17:58.000Z,97674.00
2022-11-02T06:20:26.573Z,97690.00
2022-11-02T06:22:55.380Z,97680.00
2022-11-02T06:25:23.938Z,97687.00
2022-11-02T06:27:55.807Z,97682.00
2022-11-02T06:30:28.411Z,97685.00
2022-11-02T06:32:56.609Z,97693.00
2022-11-02T06:35:25.642Z,97693.00
2022-11-02T06:37:53.894Z,97708.00
2022-11-02T06:40:25.629Z,97678.00
2022-11-02T06:43:15.245Z,97710.00
2022-11-02T06:45:46.702Z,97711.00
2022-11-02T06:48:15.060Z,97706.00
2022-11-02T06:50:43.692Z,97710.00
2022-11-02T06:53:12.123Z,97733.00
2022-11-02T06:55:40.664Z,97711.00
2022-11-02T06:58:08.914Z,97713.00
2022-11-02T07:00:38.136Z,97644.00
2022-11-02T07:03:11.784Z,97656.00
2022-11-02T07:05:40.699Z,97710.00
2022-11-02T07:08:09.657Z,97715.00
2022-11-02T07:10:38.542Z,97711.00
2022-11-02T07:13:07.334Z,97711.00
2022-11-02T07:15:35.629Z,97723.00
2022-11-02T07:18:03.763Z,97729.00
2022-11-02T07:20:33.536Z,97723.00
2022-11-02T07:23:04.413Z,97729.00
2022-11-02T07:25:34.223Z,97660.00
2022-11-02T07:28:04.296Z,97698.00
2022-11-02T07:30:35.434Z,97714.00
2022-11-02T07:33:04.283Z,97730.00
2022-11-02T07:35:34.956Z,97733.00
2022-11-02T07:38:05.989Z,97744.00
2022-11-02T07:40:36.990Z,97744.00
2022-11-02T07:43:06.974Z,97744.00
2022-11-02T07:45:47.359Z,97743.00
2022-11-02T07:48:15.700Z,97752.00
2022-11-02T07:50:51.650Z,97745.00
2022-11-02T07:53:19.693Z,97744.00
2022-11-02T07:55:47.747Z,97751.00
2022-11-02T07:58:15.845Z,97754.00
2022-11-02T08:00:44.279Z,97754.00
2022-11-02T08:03:14.616Z,97778.00
2022-11-02T08:05:44.585Z,97775.00
2022-11-02T08:08:17.373Z,97774.00
2022-11-02T08:10:47.602Z,97768.00
2022-11-02T08:13:18.868Z,97784.00
2022-11-02T08:15:51.421Z,97779.00
2022-11-02T08:18:22.150Z,97776.00
2022-11-02T08:20:52.280Z,97780.00
2022-11-02T08:23:21.818Z,97789.00
2022-11-02T08:25:51.761Z,97789.00
2022-11-02T08:28:23.719Z,97795.00
2022-11-02T08:30:51.960Z,97807.00
2022-11-02T08:33:21.730Z,97793.00
2022-11-02T08:35:53.177Z,97768.00
2022-11-02T08:38:22.918Z,97790.00
2022-11-02T08:40:51.077Z,97804.00
2022-11-02T08:43:19.186Z,97802.00
2022-11-02T08:46:13.779Z,97805.00
2022-11-02T08:48:35.431Z,97801.00
2022-11-02T08:51:05.628Z,97801.00
2022-11-02T08:53:33.767Z,97802.00
2022-11-02T08:56:01.983Z,97800.00
2022-11-02T08:58:30.139Z,97802.00
2022-11-02T09:00:58.174Z,97798.00
2022-11-02T09:03:28.189Z,97801.00
2022-11-02T09:06:02.336Z,97800.00
2022-11-02T09:08:33.159Z,97801.00
2022-11-02T09:11:03.948Z,97797.00
2022-11-02T09:13:32.291Z,97815.00
2022-11-02T09:16:01.533Z,97798.00
2022-11-02T09:18:30.226Z,97812.00
2022-11-02T09:20:58.371Z,97816.00
2022-11-02T09:23:26.479Z,97812.00
2022-11-02T09:25:55.903Z,97808.00
2022-11-02T09:28:23.973Z,97811.00
2022-11-02T09:30:52.094Z,97817.00
2022-11-02T09:33:20.256Z,97811.00
2022-11-02T09:35:50.415Z,97823.00
2022-11-02T09:38:19.342Z,97819.00
2022-11-02T09:41:02.614Z,97809.00
2022-11-02T09:43:45.891Z,97814.00
2022-11-02T09:46:20.231Z,97815.00
2022-11-02T09:48:55.027Z,97812.00
2022-11-02T09:51:27.499Z,97826.00
2022-11-02T09:54:05.983Z,97813.00
2022-11-02T09:56:36.981Z,97819.00
2022-11-02T09:59:13.821Z,97813.00
2022-11-02T10:01:58.651Z,97813.00
2022-11-02T10:05:02.528Z,97828.00
2022-11-02T10:08:14.515Z,97820.00
2022-11-02T10:11:01.926Z,97834.00
2022-11-02T10:13:42.047Z,97823.00
2022-11-02T10:16:16.459Z,97845.00
2022-11-02T10:18:49.390Z,97826.00
2022-11-02T10:21:24.487Z,97831.00
2022-11-02T10:23:54.929Z,97844.00
2022-11-02T10:26:28.090Z,97832.00
2022-11-02T10:29:05.001Z,97805.00
2022-11-02T10:31:35.528Z,97835.00
2022-11-02T10:34:23.747Z,97834.00
2022-11-02T10:37:08.329Z,97838.00
2022-11-02T10:39:46.297Z,97832.00
2022-11-02T10:42:42.955Z,97831.00
2022-11-02T10:45:50.394Z,97831.00
2022-11-02T10:48:32.848Z,97842.00
2022-11-02T10:51:09.682Z,97824.00
2022-11-02T10:53:42.969Z,97831.00
2022-11-02T10:56:20.490Z,97823.00
2022-11-02T10:59:03.138Z,97844.00
2022-11-02T11:01:33.717Z,97829.00
2022-11-02T11:04:04.586Z,97814.00
2022-11-02T11:06:37.932Z,97836.00
2022-11-02T11:09:16.669Z,97844.00
2022-11-02T11:11:56.755Z,97844.00
2022-11-02T11:20:31.022Z,97828.00
2022-11-02T11:23:17.969Z,97839.00
2022-11-02T11:25:57.470Z,97814.00
2022-11-02T11:28:31.143Z,97838.00
2022-11-02T11:31:11.775Z,97844.00
2022-11-02T11:33:48.489Z,97838.00
2022-11-02T11:36:27.865Z,97835.00
2022-11-02T11:39:00.565Z,97835.00
2022-11-02T11:41:29.992Z,97832.00
2022-11-02T11:43:58.921Z,97833.00
2022-11-02T11:46:42.443Z,97829.00
2022-11-02T11:49:36.362Z,97825.00
2022-11-02T11:52:24.497Z,97824.00
2022-11-02T11:54:58.218Z,97841.00
2022-11-02T11:57:32.476Z,97830.00
2022-11-02T12:00:05.055Z,97833.00
2022-11-02T12:02:43.979Z,97837.00
2022-11-02T12:05:18.311Z,97808.00
2022-11-02T12:08:10.324Z,97836.00
2022-11-02T12:11:03.778Z,97836.00
2022-11-02T12:14:10.621Z,97842.00
2022-11-02T12:17:10.218Z,97837.00
2022-11-02T12:20:03.717Z,97837.00
2022-11-02T12:22:48.588Z,97839.00
2022-11-02T12:25:34.640Z,97834.00
2022-11-02T12:28:23.887Z,97826.00
2022-11-02T12:31:04.774Z,97829.00
2022-11-02T12:34:01.408Z,97835.00
2022-11-02T12:37:26.130Z,97839.00
2022-11-02T12:39:57.679Z,97826.00
2022-11-02T12:42:30.450Z,97834.00
2022-11-02T12:45:18.866Z,97834.00
2022-11-02T12:47:58.505Z,97825.00
2022-11-02T12:50:53.228Z,97816.00
2022-11-02T12:53:43.014Z,97832.00
2022-11-02T12:56:21.525Z,97820.00
2022-11-02T12:58:50.558Z,97828.00
2022-11-02T13:01:29.199Z,97827.00
2022-11-02T13:04:10.572Z,97822.00
2022-11-02T13:06:43.109Z,97824.00
2022-11-02T13:09:19.031Z,97821.00
2022-11-02T13:11:55.891Z,97824.00
2022-11-02T13:14:26.860Z,97832.00
2022-11-02T13:17:04.118Z,97829.00
2022-11-02T13:19:40.323Z,97761.00
2022-11-02T13:22:14.687Z,97828.00
2022-11-02T13:24:48.541Z,97816.00
2022-11-02T13:27:36.285Z,97808.00
2022-11-02T13:30:14.359Z,97804.00
2022-11-02T13:32:46.588Z,97815.00
2022-11-02T13:35:21.167Z,97805.00
2022-11-02T13:37:56.114Z,97808.00
2022-11-02T13:40:32.275Z,97805.00
2022-11-02T13:43:39.838Z,97798.00
2022-11-02T13:46:32.748Z,97796.00
2022-11-02T13:49:06.490Z,97802.00
2022-11-02T13:51:40.285Z,97809.00
2022-11-02T13:54:17.530Z,97799.00
2022-11-02T13:56:48.144Z,97807.00
2022-11-02T13:59:26.681Z,97752.00
2022-11-02T14:01:57.374Z,97802.00
2022-11-02T14:04:27.212Z,97790.00
2022-11-02T14:07:00.833Z,97801.00
2022-11-02T14:09:35.546Z,97801.00
2022-11-02T14:12:29.538Z,97804.00
2022-11-02T14:15:42.640Z,97814.00
2022-11-02T14:18:31.851Z,97815.00
2022-11-02T14:21:20.860Z,97828.00
2022-11-02T14:23:48.929Z,97828.00
2022-11-02T14:26:34.453Z,97832.00
2022-11-02T14:29:37.114Z,97828.00
2022-11-02T14:32:21.625Z,97821.00
2022-11-02T14:35:15.185Z,97826.00
2022-11-02T14:38:09.068Z,97830.00
2022-11-02T14:40:52.909Z,97830.00
2022-11-02T14:44:05.433Z,97836.00
2022-11-02T14:46:53.277Z,97840.00
2022-11-02T14:49:27.218Z,97844.00
2022-11-02T14:52:04.907Z,97847.00
2022-11-02T14:54:40.583Z,97853.00
2022-11-02T14:57:24.787Z,97854.00
2022-11-02T14:59:57.411Z,97851.00
2022-11-02T15:02:32.496Z,97859.00
2022-11-02T15:05:04.903Z,97857.00
2022-11-02T15:07:40.154Z,97855.00
2022-11-02T15:10:40.051Z,97862.00
2022-11-02T15:13:34.570Z,97887.00
2022-11-02T15:16:25.978Z,97872.00
2022-11-02T15:18:55.896Z,97871.00
2022-11-02T15:21:29.698Z,97867.00
2022-11-02T15:24:13.860Z,97869.00
2022-11-02T15:26:55.853Z,97870.00
2022-11-02T15:29:38.741Z,97866.00
2022-11-02T15:32:21.317Z,97871.00
2022-11-02T15:34:54.482Z,97860.00
2022-11-02T15:37:28.730Z,97869.00
2022-11-02T15:39:59.958Z,97868.00
2022-11-02T15:42:41.468Z,97853.00
2022-11-02T15:45:49.293Z,97867.00
2022-11-02T15:48:47.194Z,97864.00
2022-11-02T15:51:29.757Z,97865.00
2022-11-02T15:54:14.572Z,97868.00
2022-11-02T15:56:55.561Z,97873.00
2022-11-02T16:00:14.907Z,97871.00
2022-11-02T16:02:48.140Z,97870.00
2022-11-02T16:05:25.610Z,97862.00
2022-11-02T16:08:20.931Z,97874.00
2022-11-02T16:10:50.164Z,97809.00
2022-11-02T16:13:22.092Z,97873.00
2022-11-02T16:15:51.128Z,97877.00
2022-11-02T16:18:29.189Z,97872.00
2022-11-02T16:21:02.171Z,97819.00
2022-11-02T16:23:33.956Z,97878.00
2022-11-02T16:26:08.882Z,97855.00
2022-11-02T16:28:38.583Z,97866.00
2022-11-02T16:31:19.198Z,97885.00
2022-11-02T16:33:51.572Z,97871.00
2022-11-02T16:36:23.658Z,97876.00
2022-11-02T16:39:01.147Z,97871.00
2022-11-02T16:41:33.726Z,97882.00
2022-11-02T16:44:09.674Z,97878.00
2022-11-02T16:46:48.728Z,97831.00
2022-11-02T16:49:19.816Z,97879.00
2022-11-02T16:51:54.303Z,97870.00
2022-11-02T16:54:40.281Z,97886.00
2022-11-02T16:57:19.096Z,97882.00
2022-11-02T16:59:55.572Z,97890.00
2022-11-02T17:02:40.903Z,97880.00
2022-11-02T17:05:18.769Z,97874.00
2022-11-02T17:07:59.407Z,97885.00
2022-11-02T17:10:30.454Z,97886.00
2022-11-02T17:13:01.472Z,97895.00
2022-11-02T17:15:32.216Z,97881.00
2022-11-02T17:18:27.019Z,97880.00
2022-11-02T17:21:27.188Z,97881.00
2022-11-02T17:23:58.890Z,97898.00
2022-11-02T17:26:32.065Z,97873.00
2022-11-02T17:29:03.665Z,97813.00
2022-11-02T17:31:35.640Z,97892.00
2022-11-02T17:34:10.915Z,97844.00
2022-11-02T17:36:43.583Z,97874.00
2022-11-02T17:39:14.559Z,97886.00
2022-11-02T17:42:00.966Z,97867.00
2022-11-02T17:44:30.598Z,97875.00
2022-11-02T17:46:58.691Z,97886.00
2022-11-02T17:49:26.752Z,97887.00
2022-11-02T17:51:54.854Z,97893.00
2022-11-02T17:54:22.979Z,97907.00
2022-11-02T17:56:51.043Z,97901.00
2022-11-02T17:59:19.102Z,97883.00
2022-11-02T18:01:48.817Z,97893.00
2022-11-02T18:04:17.554Z,97897.00
2022-11-02T18:06:46.104Z,97889.00
2022-11-02T18:09:19.115Z,97897.00
2022-11-02T18:11:47.623Z,97888.00
2022-11-02T18:14:17.187Z,97868.00
2022-11-02T18:16:46.435Z,97885.00
2022-11-02T18:19:16.854Z,97880.00
2022-11-02T18:21:45.053Z,97882.00
2022-11-02T18:24:13.201Z,97870.00
2022-11-02T18:26:44.220Z,97871.00
2022-11-02T18:29:15.051Z,97883.00
2022-11-02T18:31:43.304Z,97815.00
2022-11-02T18:34:11.866Z,97877.00
2022-11-02T18:36:42.026Z,97877.00
2022-11-02T18:39:10.281Z,97871.00
2022-11-02T18:41:40.352Z,97876.00
2022-11-02T18:44:14.817Z,97873.00
2022-11-02T18:46:43.906Z,97888.00
2022-11-02T18:49:12.012Z,97873.00
2022-11-02T18:51:43.401Z,97883.00
2022-11-02T18:54:11.955Z,97872.00
2022-11-02T18:56:40.022Z,97879.00
2022-11-02T18:59:08.087Z,97860.00
2022-11-02T19:01:36.520Z,97867.00
2022-11-02T19:04:20.625Z,97824.00
2022-11-02T19:07:10.020Z,97866.00
2022-11-02T19:09:40.607Z,97855.00
2022-11-02T19:12:13.784Z,97859.00
2022-11-02T19:14:44.590Z,97860.00
2022-11-02T19:17:15.284Z,97865.00
2022-11-02T19:19:45.395Z,97856.00
2022-11-02T19:22:16.623Z,97858.00
2022-11-02T19:24:44.694Z,97865.00
2022-11-02T19:27:17.170Z,97852.00
2022-11-02T19:29:48.521Z,97844.00
2022-11-02T19:32:17.586Z,97810.00
2022-11-02T19:34:46.023Z,97853.00
2022-11-02T19:37:15.463Z,97852.00
2022-11-02T19:39:43.597Z,97866.00
2022-11-02T19:42:11.627Z,97861.00
2022-11-02T19:44:42.750Z,97858.00
2022-11-02T19:47:11.248Z,97852.00
2022-11-02T19:49:39.297Z,97854.00
2022-11-02T19:52:07.401Z,97856.00
2022-11-02T19:54:36.859Z,97854.00
2022-11-02T19:57:05.156Z,97842.00
2022-11-02T19:59:34.047Z,97844.00
2022-11-02T20:02:02.239Z,97859.00
2022-11-02T20:04:30.535Z,97861.00
2022-11-02T20:06:59.985Z,97866.00
2022-11-02T20:09:28.155Z,97867.00
2022-11-02T20:11:59.090Z,97870.00
2022-11-02T20:14:27.347Z,97857.00
2022-11-02T20:17:10.682Z,97862.00
2022-11-02T20:19:43.820Z,97861.00
2022-11-02T20:22:13.041Z,97869.00
2022-11-02T20:24:41.710Z,97864.00
2022-11-02T20:27:12.986Z,97877.00
2022-11-02T20:29:41.765Z,97873.00
2022-11-02T20:32:12.551Z,97875.00
2022-11-02T20:34:41.271Z,97869.00
2022-11-02T20:37:10.100Z,97868.00
2022-11-02T20:39:38.302Z,97871.00
2022-11-02T20:42:06.671Z,97875.00
2022-11-02T20:44:36.059Z,97864.00
2022-11-02T20:47:04.172Z,97870.00
2022-11-02T20:52:21.965Z,97864.00
2022-11-02T20:54:50.142Z,97828.00
2022-11-02T20:57:18.335Z,97867.00
2022-11-02T20:59:47.708Z,97876.00
2022-11-02T21:02:16.025Z,97879.00
2022-11-02T21:04:44.156Z,97878.00
2022-11-02T21:07:12.234Z,97877.00
2022-11-02T21:09:40.331Z,97886.00
2022-11-02T21:12:27.450Z,97877.00
2022-11-02T21:14:56.831Z,97885.00
2022-11-02T21:17:24.947Z,97880.00
2022-11-02T21:19:58.157Z,97877.00
2022-11-02T21:22:36.216Z,97875.00
2022-11-02T21:25:04.727Z,97875.00
2022-11-02T21:27:32.804Z,97881.00
2022-11-02T21:30:02.208Z,97865.00
2022-11-02T21:32:31.229Z,97863.00
2022-11-02T21:34:59.283Z,97863.00
2022-11-02T21:37:27.335Z,97866.00
2022-11-02T21:39:55.422Z,97870.00
2022-11-02T21:42:23.486Z,97864.00
2022-11-02T21:44:51.642Z,97860.00
2022-11-02T21:47:21.036Z,97870.00
2022-11-02T21:49:49.199Z,97849.00
2022-11-02T21:52:17.258Z,97845.00
2022-11-02T21:54:45.388Z,97840.00
2022-11-02T21:57:13.426Z,97848.00
2022-11-02T21:59:41.467Z,97835.00
2022-11-02T22:02:09.517Z,97837.00
2022-11-02T22:04:39.113Z,97835.00
2022-11-02T22:07:07.145Z,97823.00
2022-11-02T22:09:35.265Z,97838.00
2022-11-02T22:12:21.304Z,97824.00
2022-11-02T22:14:49.456Z,97832.00
2022-11-02T22:17:43.313Z,97836.00
2022-11-02T22:20:08.493Z,97818.00
2022-11-02T22:22:36.533Z,97819.00
2022-11-02T22:25:05.251Z,97815.00
2022-11-02T22:27:33.344Z,97833.00
2022-11-02T22:30:01.414Z,97810.00
2022-11-02T22:32:29.501Z,97820.00
2022-11-02T22:34:57.556Z,97825.00
2022-11-02T22:37:44.791Z,97828.00
2022-11-02T22:40:12.825Z,97834.00
2022-11-02T22:42:42.532Z,97835.00
2022-11-02T22:45:11.970Z,97824.00
2022-11-02T22:47:40.020Z,97835.00
2022-11-02T22:50:09.208Z,97816.00
2022-11-02T22:52:38.631Z,97825.00
2022-11-02T22:55:07.749Z,97814.00
2022-11-02T22:57:35.806Z,97813.00
2022-11-02T23:00:05.678Z,97804.00
2022-11-02T23:02:33.731Z,97810.00
2022-11-02T23:05:01.860Z,97804.00
2022-11-02T23:07:30.018Z,97712.00
2022-11-02T23:09:59.386Z,97803.00
2022-11-02T23:12:26.486Z,97802.00
2022-11-02T23:14:54.535Z,97811.00
2022-11-02T23:17:22.607Z,97804.00
2022-11-02T23:19:49.649Z,97807.00
2022-11-02T23:22:35.452Z,97799.00
2022-11-02T23:25:12.854Z,97798.00
2022-11-02T23:27:57.698Z,97797.00
2022-11-02T23:30:42.533Z,97792.00
2022-11-02T23:33:10.651Z,97792.00
2022-11-02T23:35:56.394Z,97796.00
2022-11-02T23:38:24.518Z,97801.00
2022-11-02T23:40:56.009Z,97795.00
2022-11-02T23:43:24.075Z,97798.00
2022-11-02T23:45:52.144Z,97797.00
2022-11-02T23:48:20.220Z,97799.00
2022-11-02T23:51:05.966Z,97787.00
2022-11-02T23:53:51.659Z,97794.00
2022-11-02T23:56:38.655Z,97784.00
2022-11-02T23:59:09.482Z,97791.00
